Terminal Aerodrome Forecast
Issued by NWS

Home | Current Version | Previous Version | Text Only | Print | Product List | Glossary On
Versions: 1 2 3 4 5 6 7 8 9 10 11 12 13 14 15 16 17 18 19
000
FTUS43 KIND 211700
TAFLAF
TAF
KLAF 211720Z 2118/2218 27017G24KT P6SM BKN035
     FM220100 36004KT P6SM SCT030
     FM220300 34004KT P6SM SKC
     FM221400 35007KT P6SM SKC=

USA.gov is the U.S. government's official web portal to all federal, state and local government web resources and services.